sensor_id;sensor_type;location;lat;lon;timestamp;P1;durP1;ratioP1;P2;durP2;ratioP2
11121;SDS011;5615;49.304;10.576;2024-02-26T00:01:18;15.07;;;10.73;;
11121;SDS011;5615;49.304;10.576;2024-02-26T00:03:47;14.90;;;10.73;;
11121;SDS011;5615;49.304;10.576;2024-02-26T00:06:14;14.73;;;10.60;;
11121;SDS011;5615;49.304;10.576;2024-02-26T00:08:42;14.93;;;10.33;;
11121;SDS011;5615;49.304;10.576;2024-02-26T00:11:09;21.70;;;10.93;;
11121;SDS011;5615;49.304;10.576;2024-02-26T00:13:36;14.37;;;9.83;;
11121;SDS011;5615;49.304;10.576;2024-02-26T00:16:03;14.57;;;10.17;;
11121;SDS011;5615;49.304;10.576;2024-02-26T00:18:31;16.37;;;10.37;;
11121;SDS011;5615;49.304;10.576;2024-02-26T00:20:59;14.47;;;10.40;;
11121;SDS011;5615;49.304;10.576;2024-02-26T00:23:26;15.17;;;9.97;;
11121;SDS011;5615;49.304;10.576;2024-02-26T00:25:55;15.17;;;10.87;;
11121;SDS011;5615;49.304;10.576;2024-02-26T00:28:22;14.00;;;10.30;;
11121;SDS011;5615;49.304;10.576;2024-02-26T00:30:50;13.57;;;9.77;;
11121;SDS011;5615;49.304;10.576;2024-02-26T00:33:20;18.23;;;10.53;;
11121;SDS011;5615;49.304;10.576;2024-02-26T00:35:50;18.03;;;11.30;;
11121;SDS011;5615;49.304;10.576;2024-02-26T00:38:18;16.30;;;11.37;;
11121;SDS011;5615;49.304;10.576;2024-02-26T00:40:49;15.40;;;9.63;;
11121;SDS011;5615;49.304;10.576;2024-02-26T00:43:15;15.57;;;10.50;;
11121;SDS011;5615;49.304;10.576;2024-02-26T00:45:42;18.13;;;10.00;;
11121;SDS011;5615;49.304;10.576;2024-02-26T00:48:08;12.70;;;9.60;;
11121;SDS011;5615;49.304;10.576;2024-02-26T00:50:35;15.70;;;10.20;;
11121;SDS011;5615;49.304;10.576;2024-02-26T00:53:03;16.23;;;10.23;;
11121;SDS011;5615;49.304;10.576;2024-02-26T00:55:32;15.10;;;11.00;;
11121;SDS011;5615;49.304;10.576;2024-02-26T00:57:58;15.33;;;9.60;;
11121;SDS011;5615;49.304;10.576;2024-02-26T01:00:25;13.67;;;9.70;;
11121;SDS011;5615;49.304;10.576;2024-02-26T01:02:52;12.07;;;8.93;;
11121;SDS011;5615;49.304;10.576;2024-02-26T01:05:18;12.87;;;9.87;;
11121;SDS011;5615;49.304;10.576;2024-02-26T01:07:45;15.07;;;9.00;;
11121;SDS011;5615;49.304;10.576;2024-02-26T01:10:12;14.10;;;9.90;;
11121;SDS011;5615;49.304;10.576;2024-02-26T01:12:40;11.67;;;9.10;;
11121;SDS011;5615;49.304;10.576;2024-02-26T01:15:07;11.90;;;9.00;;
11121;SDS011;5615;49.304;10.576;2024-02-26T01:17:34;14.77;;;9.90;;
11121;SDS011;5615;49.304;10.576;2024-02-26T01:20:04;11.93;;;8.63;;
11121;SDS011;5615;49.304;10.576;2024-02-26T01:22:31;13.20;;;8.97;;
11121;SDS011;5615;49.304;10.576;2024-02-26T01:24:58;12.07;;;9.30;;
11121;SDS011;5615;49.304;10.576;2024-02-26T01:27:24;11.83;;;8.97;;
11121;SDS011;5615;49.304;10.576;2024-02-26T01:29:53;13.03;;;9.17;;
11121;SDS011;5615;49.304;10.576;2024-02-26T01:32:20;13.60;;;9.00;;
11121;SDS011;5615;49.304;10.576;2024-02-26T01:34:46;11.93;;;8.73;;
11121;SDS011;5615;49.304;10.576;2024-02-26T01:37:18;14.97;;;9.43;;
11121;SDS011;5615;49.304;10.576;2024-02-26T01:39:45;12.17;;;8.33;;
11121;SDS011;5615;49.304;10.576;2024-02-26T01:42:12;11.03;;;8.67;;
11121;SDS011;5615;49.304;10.576;2024-02-26T01:44:38;11.47;;;8.40;;
11121;SDS011;5615;49.304;10.576;2024-02-26T01:47:07;11.03;;;8.53;;
11121;SDS011;5615;49.304;10.576;2024-02-26T01:49:38;11.13;;;8.10;;
11121;SDS011;5615;49.304;10.576;2024-02-26T01:52:06;12.53;;;9.00;;
11121;SDS011;5615;49.304;10.576;2024-02-26T01:54:34;11.13;;;8.60;;
11121;SDS011;5615;49.304;10.576;2024-02-26T01:57:03;12.40;;;8.43;;
11121;SDS011;5615;49.304;10.576;2024-02-26T01:59:31;14.43;;;9.07;;
11121;SDS011;5615;49.304;10.576;2024-02-26T02:02:00;14.20;;;8.67;;
11121;SDS011;5615;49.304;10.576;2024-02-26T02:04:30;13.00;;;8.33;;
11121;SDS011;5615;49.304;10.576;2024-02-26T02:06:57;11.60;;;8.47;;
11121;SDS011;5615;49.304;10.576;2024-02-26T02:09:26;14.73;;;9.30;;
11121;SDS011;5615;49.304;10.576;2024-02-26T02:11:53;11.57;;;8.40;;
11121;SDS011;5615;49.304;10.576;2024-02-26T02:14:20;14.60;;;8.50;;
11121;SDS011;5615;49.304;10.576;2024-02-26T02:16:47;13.00;;;8.40;;
11121;SDS011;5615;49.304;10.576;2024-02-26T02:19:14;11.90;;;7.77;;
11121;SDS011;5615;49.304;10.576;2024-02-26T02:21:42;9.43;;;7.50;;
11121;SDS011;5615;49.304;10.576;2024-02-26T02:24:10;12.27;;;8.70;;
11121;SDS011;5615;49.304;10.576;2024-02-26T02:26:36;10.77;;;7.50;;
11121;SDS011;5615;49.304;10.576;2024-02-26T02:29:03;11.80;;;7.57;;
11121;SDS011;5615;49.304;10.576;2024-02-26T02:31:32;15.00;;;8.97;;
11121;SDS011;5615;49.304;10.576;2024-02-26T02:33:59;11.37;;;8.20;;
11121;SDS011;5615;49.304;10.576;2024-02-26T02:36:26;11.47;;;8.37;;
11121;SDS011;5615;49.304;10.576;2024-02-26T02:38:54;14.47;;;8.87;;
11121;SDS011;5615;49.304;10.576;2024-02-26T02:41:21;10.87;;;8.03;;
11121;SDS011;5615;49.304;10.576;2024-02-26T02:43:47;13.57;;;8.07;;
11121;SDS011;5615;49.304;10.576;2024-02-26T02:46:14;12.40;;;7.47;;
11121;SDS011;5615;49.304;10.576;2024-02-26T02:48:41;14.47;;;7.23;;
11121;SDS011;5615;49.304;10.576;2024-02-26T02:51:08;11.03;;;7.67;;
11121;SDS011;5615;49.304;10.576;2024-02-26T02:53:35;12.20;;;7.37;;
11121;SDS011;5615;49.304;10.576;2024-02-26T02:56:03;9.97;;;7.70;;
11121;SDS011;5615;49.304;10.576;2024-02-26T02:58:30;14.23;;;7.77;;
11121;SDS011;5615;49.304;10.576;2024-02-26T03:00:57;12.47;;;8.40;;
11121;SDS011;5615;49.304;10.576;2024-02-26T03:03:25;13.67;;;7.97;;
11121;SDS011;5615;49.304;10.576;2024-02-26T03:05:53;10.30;;;7.70;;
11121;SDS011;5615;49.304;10.576;2024-02-26T03:08:20;10.83;;;7.27;;
11121;SDS011;5615;49.304;10.576;2024-02-26T03:10:52;12.83;;;8.13;;
11121;SDS011;5615;49.304;10.576;2024-02-26T03:13:20;11.33;;;8.17;;
11121;SDS011;5615;49.304;10.576;2024-02-26T03:15:47;12.67;;;8.33;;
11121;SDS011;5615;49.304;10.576;2024-02-26T03:18:14;10.93;;;7.90;;
11121;SDS011;5615;49.304;10.576;2024-02-26T03:20:41;12.80;;;8.90;;
11121;SDS011;5615;49.304;10.576;2024-02-26T03:23:07;11.97;;;8.77;;
11121;SDS011;5615;49.304;10.576;2024-02-26T03:25:37;10.93;;;8.10;;
11121;SDS011;5615;49.304;10.576;2024-02-26T03:28:04;13.40;;;9.13;;
11121;SDS011;5615;49.304;10.576;2024-02-26T03:30:32;14.70;;;9.60;;
11121;SDS011;5615;49.304;10.576;2024-02-26T03:32:59;12.43;;;9.17;;
11121;SDS011;5615;49.304;10.576;2024-02-26T03:35:27;15.03;;;9.27;;
11121;SDS011;5615;49.304;10.576;2024-02-26T03:37:54;11.93;;;8.83;;
11121;SDS011;5615;49.304;10.576;2024-02-26T03:40:21;11.97;;;8.77;;
11121;SDS011;5615;49.304;10.576;2024-02-26T03:42:50;12.60;;;8.77;;
11121;SDS011;5615;49.304;10.576;2024-02-26T03:45:18;12.17;;;9.07;;
11121;SDS011;5615;49.304;10.576;2024-02-26T03:47:46;12.77;;;8.40;;
11121;SDS011;5615;49.304;10.576;2024-02-26T03:50:13;14.03;;;8.33;;
11121;SDS011;5615;49.304;10.576;2024-02-26T03:52:40;11.47;;;8.17;;
11121;SDS011;5615;49.304;10.576;2024-02-26T03:55:08;14.33;;;8.70;;
11121;SDS011;5615;49.304;10.576;2024-02-26T03:57:36;12.87;;;9.37;;
11121;SDS011;5615;49.304;10.576;2024-02-26T04:00:03;11.53;;;8.70;;
11121;SDS011;5615;49.304;10.576;2024-02-26T04:02:31;14.47;;;9.53;;
11121;SDS011;5615;49.304;10.576;2024-02-26T04:04:59;16.20;;;9.97;;
11121;SDS011;5615;49.304;10.576;2024-02-26T04:07:26;13.77;;;9.53;;
11121;SDS011;5615;49.304;10.576;2024-02-26T04:09:52;14.73;;;9.97;;
11121;SDS011;5615;49.304;10.576;2024-02-26T04:12:20;13.10;;;9.63;;
11121;SDS011;5615;49.304;10.576;2024-02-26T04:14:46;13.83;;;9.70;;
11121;SDS011;5615;49.304;10.576;2024-02-26T04:17:13;14.47;;;10.60;;
11121;SDS011;5615;49.304;10.576;2024-02-26T04:19:39;14.47;;;10.40;;
11121;SDS011;5615;49.304;10.576;2024-02-26T04:22:07;15.13;;;10.17;;
11121;SDS011;5615;49.304;10.576;2024-02-26T04:24:36;16.50;;;10.60;;
11121;SDS011;5615;49.304;10.576;2024-02-26T04:27:03;14.93;;;10.40;;
11121;SDS011;5615;49.304;10.576;2024-02-26T04:29:29;15.87;;;11.77;;
11121;SDS011;5615;49.304;10.576;2024-02-26T04:31:56;16.17;;;10.70;;
11121;SDS011;5615;49.304;10.576;2024-02-26T04:34:23;14.60;;;10.80;;
11121;SDS011;5615;49.304;10.576;2024-02-26T04:36:50;19.93;;;11.60;;
11121;SDS011;5615;49.304;10.576;2024-02-26T04:39:18;17.13;;;11.23;;
11121;SDS011;5615;49.304;10.576;2024-02-26T04:41:45;23.43;;;12.30;;
11121;SDS011;5615;49.304;10.576;2024-02-26T04:44:11;17.07;;;11.17;;
11121;SDS011;5615;49.304;10.576;2024-02-26T04:46:38;16.60;;;11.27;;
11121;SDS011;5615;49.304;10.576;2024-02-26T04:49:05;16.67;;;11.33;;
11121;SDS011;5615;49.304;10.576;2024-02-26T04:51:32;19.07;;;10.73;;
11121;SDS011;5615;49.304;10.576;2024-02-26T04:53:58;17.17;;;10.93;;
11121;SDS011;5615;49.304;10.576;2024-02-26T04:56:26;15.80;;;11.40;;
11121;SDS011;5615;49.304;10.576;2024-02-26T04:58:53;14.93;;;11.53;;
11121;SDS011;5615;49.304;10.576;2024-02-26T05:01:19;18.50;;;12.33;;
11121;SDS011;5615;49.304;10.576;2024-02-26T05:03:46;16.17;;;11.80;;
11121;SDS011;5615;49.304;10.576;2024-02-26T05:06:14;18.03;;;11.80;;
11121;SDS011;5615;49.304;10.576;2024-02-26T05:08:40;17.93;;;11.77;;
11121;SDS011;5615;49.304;10.576;2024-02-26T05:11:09;20.83;;;13.40;;
11121;SDS011;5615;49.304;10.576;2024-02-26T05:13:37;25.03;;;13.53;;
11121;SDS011;5615;49.304;10.576;2024-02-26T05:16:04;18.47;;;12.10;;
11121;SDS011;5615;49.304;10.576;2024-02-26T05:18:33;16.13;;;11.47;;
11121;SDS011;5615;49.304;10.576;2024-02-26T05:21:01;20.43;;;11.83;;
11121;SDS011;5615;49.304;10.576;2024-02-26T05:23:28;15.53;;;11.27;;
11121;SDS011;5615;49.304;10.576;2024-02-26T05:25:55;17.43;;;11.90;;
11121;SDS011;5615;49.304;10.576;2024-02-26T05:28:21;17.20;;;11.23;;
11121;SDS011;5615;49.304;10.576;2024-02-26T05:30:49;20.23;;;11.30;;
11121;SDS011;5615;49.304;10.576;2024-02-26T05:33:17;18.60;;;11.80;;
11121;SDS011;5615;49.304;10.576;2024-02-26T05:35:44;17.67;;;12.23;;
11121;SDS011;5615;49.304;10.576;2024-02-26T05:38:10;17.10;;;11.87;;
11121;SDS011;5615;49.304;10.576;2024-02-26T05:40:38;17.07;;;11.60;;
11121;SDS011;5615;49.304;10.576;2024-02-26T05:43:04;16.73;;;11.77;;
11121;SDS011;5615;49.304;10.576;2024-02-26T05:45:31;18.60;;;12.67;;
11121;SDS011;5615;49.304;10.576;2024-02-26T05:47:59;17.70;;;12.57;;
11121;SDS011;5615;49.304;10.576;2024-02-26T05:50:26;18.23;;;12.67;;
11121;SDS011;5615;49.304;10.576;2024-02-26T05:52:52;22.03;;;14.13;;
11121;SDS011;5615;49.304;10.576;2024-02-26T05:55:19;20.90;;;13.87;;
11121;SDS011;5615;49.304;10.576;2024-02-26T05:57:46;22.77;;;14.13;;
11121;SDS011;5615;49.304;10.576;2024-02-26T06:00:14;20.73;;;13.37;;
11121;SDS011;5615;49.304;10.576;2024-02-26T06:02:42;22.23;;;14.57;;
11121;SDS011;5615;49.304;10.576;2024-02-26T06:05:11;21.00;;;14.20;;
11121;SDS011;5615;49.304;10.576;2024-02-26T06:07:38;23.07;;;14.60;;
11121;SDS011;5615;49.304;10.576;2024-02-26T06:10:05;21.40;;;14.17;;
11121;SDS011;5615;49.304;10.576;2024-02-26T06:12:34;21.23;;;14.33;;
11121;SDS011;5615;49.304;10.576;2024-02-26T06:15:01;20.90;;;14.33;;
11121;SDS011;5615;49.304;10.576;2024-02-26T06:17:29;21.93;;;14.37;;
11121;SDS011;5615;49.304;10.576;2024-02-26T06:19:56;21.87;;;14.63;;
11121;SDS011;5615;49.304;10.576;2024-02-26T06:22:25;25.17;;;14.27;;
11121;SDS011;5615;49.304;10.576;2024-02-26T06:24:52;21.07;;;14.60;;
11121;SDS011;5615;49.304;10.576;2024-02-26T06:27:19;22.47;;;14.50;;
11121;SDS011;5615;49.304;10.576;2024-02-26T06:29:46;21.33;;;14.40;;
11121;SDS011;5615;49.304;10.576;2024-02-26T06:32:13;20.80;;;15.10;;
11121;SDS011;5615;49.304;10.576;2024-02-26T06:34:40;23.87;;;14.30;;
11121;SDS011;5615;49.304;10.576;2024-02-26T06:37:07;19.83;;;13.60;;
11121;SDS011;5615;49.304;10.576;2024-02-26T06:39:35;22.30;;;13.47;;
11121;SDS011;5615;49.304;10.576;2024-02-26T06:42:03;20.57;;;13.97;;
11121;SDS011;5615;49.304;10.576;2024-02-26T06:44:30;18.43;;;13.80;;
11121;SDS011;5615;49.304;10.576;2024-02-26T06:46:57;21.07;;;13.63;;
11121;SDS011;5615;49.304;10.576;2024-02-26T06:49:24;18.70;;;13.23;;
11121;SDS011;5615;49.304;10.576;2024-02-26T06:51:51;18.93;;;13.70;;
11121;SDS011;5615;49.304;10.576;2024-02-26T06:54:18;20.03;;;13.30;;
11121;SDS011;5615;49.304;10.576;2024-02-26T06:56:46;18.80;;;13.57;;
11121;SDS011;5615;49.304;10.576;2024-02-26T06:59:12;23.50;;;16.10;;
11121;SDS011;5615;49.304;10.576;2024-02-26T07:01:39;20.90;;;14.07;;
11121;SDS011;5615;49.304;10.576;2024-02-26T07:04:07;19.57;;;13.60;;
11121;SDS011;5615;49.304;10.576;2024-02-26T07:06:35;20.80;;;13.87;;
11121;SDS011;5615;49.304;10.576;2024-02-26T07:09:03;20.70;;;13.40;;
11121;SDS011;5615;49.304;10.576;2024-02-26T07:11:30;20.43;;;14.47;;
11121;SDS011;5615;49.304;10.576;2024-02-26T07:13:58;18.20;;;13.77;;
11121;SDS011;5615;49.304;10.576;2024-02-26T07:16:26;21.17;;;13.07;;
11121;SDS011;5615;49.304;10.576;2024-02-26T07:18:53;21.83;;;14.57;;
11121;SDS011;5615;49.304;10.576;2024-02-26T07:21:19;20.63;;;14.83;;
11121;SDS011;5615;49.304;10.576;2024-02-26T07:23:46;22.27;;;14.63;;
11121;SDS011;5615;49.304;10.576;2024-02-26T07:26:12;21.03;;;13.77;;
11121;SDS011;5615;49.304;10.576;2024-02-26T07:28:40;19.67;;;14.20;;
11121;SDS011;5615;49.304;10.576;2024-02-26T07:31:08;20.73;;;13.70;;
11121;SDS011;5615;49.304;10.576;2024-02-26T07:33:34;20.93;;;13.53;;
11121;SDS011;5615;49.304;10.576;2024-02-26T07:36:01;17.93;;;12.67;;
11121;SDS011;5615;49.304;10.576;2024-02-26T07:38:28;17.83;;;12.93;;
11121;SDS011;5615;49.304;10.576;2024-02-26T07:40:55;18.83;;;13.03;;
11121;SDS011;5615;49.304;10.576;2024-02-26T07:43:22;19.43;;;12.47;;
11121;SDS011;5615;49.304;10.576;2024-02-26T07:45:49;16.63;;;12.50;;
11121;SDS011;5615;49.304;10.576;2024-02-26T07:48:17;14.83;;;11.80;;
11121;SDS011;5615;49.304;10.576;2024-02-26T07:50:43;20.90;;;12.87;;
11121;SDS011;5615;49.304;10.576;2024-02-26T07:53:10;23.30;;;12.37;;
11121;SDS011;5615;49.304;10.576;2024-02-26T07:55:36;16.70;;;12.47;;
11121;SDS011;5615;49.304;10.576;2024-02-26T07:58:03;17.10;;;11.57;;
11121;SDS011;5615;49.304;10.576;2024-02-26T08:00:30;13.90;;;12.10;;
11121;SDS011;5615;49.304;10.576;2024-02-26T08:02:57;15.67;;;11.37;;
11121;SDS011;5615;49.304;10.576;2024-02-26T08:05:25;16.70;;;11.50;;
11121;SDS011;5615;49.304;10.576;2024-02-26T08:07:51;16.20;;;12.43;;
11121;SDS011;5615;49.304;10.576;2024-02-26T08:10:19;16.77;;;11.93;;
11121;SDS011;5615;49.304;10.576;2024-02-26T08:12:46;17.80;;;12.33;;
11121;SDS011;5615;49.304;10.576;2024-02-26T08:15:13;20.03;;;12.63;;
11121;SDS011;5615;49.304;10.576;2024-02-26T08:17:40;15.97;;;12.37;;
11121;SDS011;5615;49.304;10.576;2024-02-26T08:20:07;14.43;;;11.03;;
11121;SDS011;5615;49.304;10.576;2024-02-26T08:22:35;17.60;;;12.27;;
11121;SDS011;5615;49.304;10.576;2024-02-26T08:25:04;16.70;;;11.60;;
11121;SDS011;5615;49.304;10.576;2024-02-26T08:27:34;17.33;;;12.10;;
11121;SDS011;5615;49.304;10.576;2024-02-26T08:30:00;17.40;;;12.00;;
11121;SDS011;5615;49.304;10.576;2024-02-26T08:32:27;19.03;;;12.40;;
11121;SDS011;5615;49.304;10.576;2024-02-26T08:34:54;15.70;;;11.23;;
11121;SDS011;5615;49.304;10.576;2024-02-26T08:37:21;15.03;;;11.77;;
11121;SDS011;5615;49.304;10.576;2024-02-26T08:39:49;17.33;;;12.33;;
11121;SDS011;5615;49.304;10.576;2024-02-26T08:42:15;14.97;;;12.07;;
11121;SDS011;5615;49.304;10.576;2024-02-26T08:44:42;15.40;;;11.50;;
11121;SDS011;5615;49.304;10.576;2024-02-26T08:47:08;14.30;;;11.40;;
11121;SDS011;5615;49.304;10.576;2024-02-26T08:49:35;14.90;;;11.23;;
11121;SDS011;5615;49.304;10.576;2024-02-26T08:52:02;12.90;;;10.23;;
11121;SDS011;5615;49.304;10.576;2024-02-26T08:54:31;13.00;;;10.43;;
11121;SDS011;5615;49.304;10.576;2024-02-26T08:56:59;11.83;;;10.03;;
11121;SDS011;5615;49.304;10.576;2024-02-26T08:59:26;13.50;;;9.67;;
11121;SDS011;5615;49.304;10.576;2024-02-26T09:01:52;13.17;;;9.80;;
11121;SDS011;5615;49.304;10.576;2024-02-26T09:04:19;12.67;;;9.93;;
11121;SDS011;5615;49.304;10.576;2024-02-26T09:06:46;11.00;;;9.43;;
11121;SDS011;5615;49.304;10.576;2024-02-26T09:09:14;11.13;;;9.40;;
11121;SDS011;5615;49.304;10.576;2024-02-26T09:11:41;11.07;;;9.30;;
11121;SDS011;5615;49.304;10.576;2024-02-26T09:14:09;11.00;;;8.83;;
11121;SDS011;5615;49.304;10.576;2024-02-26T09:16:35;10.13;;;9.03;;
11121;SDS011;5615;49.304;10.576;2024-02-26T09:19:02;11.47;;;10.10;;
11121;SDS011;5615;49.304;10.576;2024-02-26T09:21:29;10.93;;;9.40;;
11121;SDS011;5615;49.304;10.576;2024-02-26T09:23:55;11.60;;;9.73;;
11121;SDS011;5615;49.304;10.576;2024-02-26T09:26:22;9.37;;;8.30;;
11121;SDS011;5615;49.304;10.576;2024-02-26T09:28:49;12.60;;;9.30;;
11121;SDS011;5615;49.304;10.576;2024-02-26T09:31:17;12.63;;;8.50;;
11121;SDS011;5615;49.304;10.576;2024-02-26T09:33:44;11.80;;;8.57;;
11121;SDS011;5615;49.304;10.576;2024-02-26T09:36:11;11.30;;;9.40;;
11121;SDS011;5615;49.304;10.576;2024-02-26T09:38:38;11.30;;;9.83;;
11121;SDS011;5615;49.304;10.576;2024-02-26T09:41:05;12.27;;;9.83;;
11121;SDS011;5615;49.304;10.576;2024-02-26T09:43:33;11.97;;;9.47;;
11121;SDS011;5615;49.304;10.576;2024-02-26T09:46:01;10.57;;;8.90;;
11121;SDS011;5615;49.304;10.576;2024-02-26T09:48:30;11.40;;;8.90;;
11121;SDS011;5615;49.304;10.576;2024-02-26T09:50:58;10.13;;;8.33;;
11121;SDS011;5615;49.304;10.576;2024-02-26T09:53:27;9.93;;;8.65;;
11121;SDS011;5615;49.304;10.576;2024-02-26T09:55:56;10.00;;;8.70;;
11121;SDS011;5615;49.304;10.576;2024-02-26T09:58:23;12.65;;;9.00;;
11121;SDS011;5615;49.304;10.576;2024-02-26T10:00:51;9.75;;;8.45;;
11121;SDS011;5615;49.304;10.576;2024-02-26T10:03:23;9.20;;;7.95;;
11121;SDS011;5615;49.304;10.576;2024-02-26T10:05:55;11.13;;;8.25;;
11121;SDS011;5615;49.304;10.576;2024-02-26T10:08:23;10.20;;;8.27;;
11121;SDS011;5615;49.304;10.576;2024-02-26T10:10:50;9.90;;;8.70;;
11121;SDS011;5615;49.304;10.576;2024-02-26T10:13:17;12.18;;;8.85;;
11121;SDS011;5615;49.304;10.576;2024-02-26T10:15:45;12.07;;;8.10;;
11121;SDS011;5615;49.304;10.576;2024-02-26T10:18:12;9.88;;;8.65;;
11121;SDS011;5615;49.304;10.576;2024-02-26T10:20:38;10.93;;;8.80;;
11121;SDS011;5615;49.304;10.576;2024-02-26T10:23:06;14.43;;;8.80;;
11121;SDS011;5615;49.304;10.576;2024-02-26T10:25:33;13.02;;;8.95;;
11121;SDS011;5615;49.304;10.576;2024-02-26T10:28:00;10.10;;;8.80;;
11121;SDS011;5615;49.304;10.576;2024-02-26T10:30:28;13.55;;;9.02;;
11121;SDS011;5615;49.304;10.576;2024-02-26T10:32:55;11.55;;;8.65;;
11121;SDS011;5615;49.304;10.576;2024-02-26T10:35:22;11.00;;;8.75;;
11121;SDS011;5615;49.304;10.576;2024-02-26T10:37:49;9.90;;;8.43;;
11121;SDS011;5615;49.304;10.576;2024-02-26T10:40:19;11.70;;;8.05;;
11121;SDS011;5615;49.304;10.576;2024-02-26T10:42:45;12.20;;;9.02;;
11121;SDS011;5615;49.304;10.576;2024-02-26T10:45:12;10.52;;;8.73;;
11121;SDS011;5615;49.304;10.576;2024-02-26T10:47:39;10.48;;;7.90;;
11121;SDS011;5615;49.304;10.576;2024-02-26T10:50:06;10.65;;;8.43;;
11121;SDS011;5615;49.304;10.576;2024-02-26T10:52:35;10.13;;;7.57;;
11121;SDS011;5615;49.304;10.576;2024-02-26T10:55:03;10.05;;;8.32;;
11121;SDS011;5615;49.304;10.576;2024-02-26T10:57:33;10.38;;;7.78;;
11121;SDS011;5615;49.304;10.576;2024-02-26T11:00:02;8.80;;;7.20;;
11121;SDS011;5615;49.304;10.576;2024-02-26T11:02:31;8.98;;;8.00;;
11121;SDS011;5615;49.304;10.576;2024-02-26T11:05:00;10.13;;;7.95;;
11121;SDS011;5615;49.304;10.576;2024-02-26T11:07:28;8.55;;;7.50;;
11121;SDS011;5615;49.304;10.576;2024-02-26T11:09:56;9.52;;;7.80;;
11121;SDS011;5615;49.304;10.576;2024-02-26T11:12:24;10.35;;;8.00;;
11121;SDS011;5615;49.304;10.576;2024-02-26T11:14:55;11.73;;;7.97;;
11121;SDS011;5615;49.304;10.576;2024-02-26T11:17:23;11.27;;;7.00;;
11121;SDS011;5615;49.304;10.576;2024-02-26T11:19:53;7.88;;;7.07;;
11121;SDS011;5615;49.304;10.576;2024-02-26T11:22:22;9.07;;;6.95;;
11121;SDS011;5615;49.304;10.576;2024-02-26T11:24:51;7.60;;;6.72;;
11121;SDS011;5615;49.304;10.576;2024-02-26T11:27:19;8.00;;;6.47;;
11121;SDS011;5615;49.304;10.576;2024-02-26T11:29:50;7.60;;;6.32;;
11121;SDS011;5615;49.304;10.576;2024-02-26T11:32:19;8.32;;;6.57;;
11121;SDS011;5615;49.304;10.576;2024-02-26T11:34:47;7.25;;;6.22;;
11121;SDS011;5615;49.304;10.576;2024-02-26T11:37:15;7.10;;;6.03;;
11121;SDS011;5615;49.304;10.576;2024-02-26T11:39:43;7.03;;;5.88;;
11121;SDS011;5615;49.304;10.576;2024-02-26T11:42:13;8.93;;;5.75;;
11121;SDS011;5615;49.304;10.576;2024-02-26T11:44:40;6.35;;;5.75;;
11121;SDS011;5615;49.304;10.576;2024-02-26T11:47:11;8.90;;;5.80;;
11121;SDS011;5615;49.304;10.576;2024-02-26T11:49:39;5.78;;;5.22;;
11121;SDS011;5615;49.304;10.576;2024-02-26T11:52:06;5.88;;;5.03;;
11121;SDS011;5615;49.304;10.576;2024-02-26T11:54:38;5.60;;;5.10;;
11121;SDS011;5615;49.304;10.576;2024-02-26T11:57:24;5.68;;;5.00;;
11121;SDS011;5615;49.304;10.576;2024-02-26T11:59:53;5.45;;;4.63;;
11121;SDS011;5615;49.304;10.576;2024-02-26T12:05:24;5.75;;;5.13;;
11121;SDS011;5615;49.304;10.576;2024-02-26T12:07:53;8.80;;;4.90;;
11121;SDS011;5615;49.304;10.576;2024-02-26T12:10:23;5.40;;;4.90;;
11121;SDS011;5615;49.304;10.576;2024-02-26T12:12:55;5.63;;;5.03;;
11121;SDS011;5615;49.304;10.576;2024-02-26T12:15:30;6.03;;;5.43;;
11121;SDS011;5615;49.304;10.576;2024-02-26T12:17:58;6.75;;;4.97;;
11121;SDS011;5615;49.304;10.576;2024-02-26T12:20:27;8.63;;;5.05;;
11121;SDS011;5615;49.304;10.576;2024-02-26T12:22:54;7.00;;;4.70;;
11121;SDS011;5615;49.304;10.576;2024-02-26T12:25:22;5.18;;;4.68;;
11121;SDS011;5615;49.304;10.576;2024-02-26T12:27:51;7.75;;;5.10;;
11121;SDS011;5615;49.304;10.576;2024-02-26T12:30:17;5.97;;;4.90;;
11121;SDS011;5615;49.304;10.576;2024-02-26T12:32:45;6.13;;;4.20;;
11121;SDS011;5615;49.304;10.576;2024-02-26T12:35:12;5.03;;;4.40;;
11121;SDS011;5615;49.304;10.576;2024-02-26T12:37:40;4.75;;;4.22;;
11121;SDS011;5615;49.304;10.576;2024-02-26T12:40:08;7.47;;;4.10;;
11121;SDS011;5615;49.304;10.576;2024-02-26T12:42:35;6.57;;;3.70;;
11121;SDS011;5615;49.304;10.576;2024-02-26T12:45:04;4.03;;;3.30;;
11121;SDS011;5615;49.304;10.576;2024-02-26T12:47:34;6.80;;;4.07;;
11121;SDS011;5615;49.304;10.576;2024-02-26T12:50:04;4.70;;;3.72;;
11121;SDS011;5615;49.304;10.576;2024-02-26T12:52:31;5.97;;;3.50;;
11121;SDS011;5615;49.304;10.576;2024-02-26T12:55:00;4.03;;;3.60;;
11121;SDS011;5615;49.304;10.576;2024-02-26T12:57:28;5.68;;;3.70;;
11121;SDS011;5615;49.304;10.576;2024-02-26T12:59:56;5.80;;;3.83;;
11121;SDS011;5615;49.304;10.576;2024-02-26T13:02:23;3.47;;;3.17;;
11121;SDS011;5615;49.304;10.576;2024-02-26T13:04:50;3.55;;;3.05;;
11121;SDS011;5615;49.304;10.576;2024-02-26T13:07:17;4.78;;;3.00;;
11121;SDS011;5615;49.304;10.576;2024-02-26T13:09:44;3.22;;;2.80;;
11121;SDS011;5615;49.304;10.576;2024-02-26T13:12:12;3.75;;;3.13;;
11121;SDS011;5615;49.304;10.576;2024-02-26T13:14:39;3.75;;;2.97;;
11121;SDS011;5615;49.304;10.576;2024-02-26T13:17:06;4.22;;;2.75;;
11121;SDS011;5615;49.304;10.576;2024-02-26T13:19:32;2.90;;;2.33;;
11121;SDS011;5615;49.304;10.576;2024-02-26T13:22:03;5.13;;;2.40;;
11121;SDS011;5615;49.304;10.576;2024-02-26T13:24:31;2.60;;;2.30;;
11121;SDS011;5615;49.304;10.576;2024-02-26T13:26:58;2.63;;;2.30;;
11121;SDS011;5615;49.304;10.576;2024-02-26T13:29:26;4.05;;;2.67;;
11121;SDS011;5615;49.304;10.576;2024-02-26T13:31:55;4.03;;;3.00;;
11121;SDS011;5615;49.304;10.576;2024-02-26T13:34:24;3.65;;;2.83;;
11121;SDS011;5615;49.304;10.576;2024-02-26T13:36:51;5.20;;;2.78;;
11121;SDS011;5615;49.304;10.576;2024-02-26T13:39:22;2.92;;;2.60;;
11121;SDS011;5615;49.304;10.576;2024-02-26T13:41:49;3.17;;;2.70;;
11121;SDS011;5615;49.304;10.576;2024-02-26T13:44:16;3.53;;;2.80;;
11121;SDS011;5615;49.304;10.576;2024-02-26T13:46:44;3.85;;;2.50;;
11121;SDS011;5615;49.304;10.576;2024-02-26T13:49:11;3.35;;;2.45;;
11121;SDS011;5615;49.304;10.576;2024-02-26T13:51:37;2.80;;;2.60;;
11121;SDS011;5615;49.304;10.576;2024-02-26T13:54:04;3.00;;;2.65;;
11121;SDS011;5615;49.304;10.576;2024-02-26T13:56:31;4.03;;;2.90;;
11121;SDS011;5615;49.304;10.576;2024-02-26T13:58:58;3.75;;;2.58;;
11121;SDS011;5615;49.304;10.576;2024-02-26T14:01:25;3.38;;;2.90;;
11121;SDS011;5615;49.304;10.576;2024-02-26T14:03:54;4.05;;;2.85;;
11121;SDS011;5615;49.304;10.576;2024-02-26T14:06:22;5.70;;;3.00;;
11121;SDS011;5615;49.304;10.576;2024-02-26T14:08:49;2.90;;;2.35;;
11121;SDS011;5615;49.304;10.576;2024-02-26T14:11:16;5.67;;;2.80;;
11121;SDS011;5615;49.304;10.576;2024-02-26T14:13:42;5.27;;;3.20;;
11121;SDS011;5615;49.304;10.576;2024-02-26T14:16:11;3.20;;;2.60;;
11121;SDS011;5615;49.304;10.576;2024-02-26T14:18:38;5.00;;;3.13;;
11121;SDS011;5615;49.304;10.576;2024-02-26T14:21:07;3.03;;;2.60;;
11121;SDS011;5615;49.304;10.576;2024-02-26T14:23:33;3.47;;;2.77;;
11121;SDS011;5615;49.304;10.576;2024-02-26T14:26:00;4.43;;;2.70;;
11121;SDS011;5615;49.304;10.576;2024-02-26T14:28:29;3.88;;;3.03;;
11121;SDS011;5615;49.304;10.576;2024-02-26T14:30:57;3.77;;;2.80;;
11121;SDS011;5615;49.304;10.576;2024-02-26T14:33:23;5.10;;;3.20;;
11121;SDS011;5615;49.304;10.576;2024-02-26T14:35:50;3.50;;;2.80;;
11121;SDS011;5615;49.304;10.576;2024-02-26T14:38:18;4.20;;;3.07;;